sensor_id;sensor_type;location;lat;lon;timestamp;P1;durP1;ratioP1;P2;durP2;ratioP2
36351;SDS011;22382;44.768;17.206;2023-05-07T00:01:13;7.07;;;6.38;;
36351;SDS011;22382;44.768;17.206;2023-05-07T00:03:40;7.70;;;6.60;;
36351;SDS011;22382;44.768;17.206;2023-05-07T00:06:08;8.55;;;6.68;;
36351;SDS011;22382;44.768;17.206;2023-05-07T00:08:36;9.98;;;6.60;;
36351;SDS011;22382;44.768;17.206;2023-05-07T00:11:03;9.68;;;6.85;;
36351;SDS011;22382;44.768;17.206;2023-05-07T00:13:31;8.15;;;6.68;;
36351;SDS011;22382;44.768;17.206;2023-05-07T00:16:02;8.30;;;6.93;;
36351;SDS011;22382;44.768;17.206;2023-05-07T00:18:29;8.70;;;6.72;;
36351;SDS011;22382;44.768;17.206;2023-05-07T00:20:57;6.75;;;6.03;;
36351;SDS011;22382;44.768;17.206;2023-05-07T00:23:24;7.93;;;6.60;;
36351;SDS011;22382;44.768;17.206;2023-05-07T00:25:51;11.40;;;7.57;;
36351;SDS011;22382;44.768;17.206;2023-05-07T00:28:18;8.80;;;6.85;;
36351;SDS011;22382;44.768;17.206;2023-05-07T00:30:45;10.60;;;6.90;;
36351;SDS011;22382;44.768;17.206;2023-05-07T00:33:12;7.13;;;6.43;;
36351;SDS011;22382;44.768;17.206;2023-05-07T00:35:41;8.60;;;6.40;;
36351;SDS011;22382;44.768;17.206;2023-05-07T00:38:10;7.75;;;6.93;;
36351;SDS011;22382;44.768;17.206;2023-05-07T00:40:37;9.93;;;7.63;;
36351;SDS011;22382;44.768;17.206;2023-05-07T00:43:04;11.50;;;7.50;;
36351;SDS011;22382;44.768;17.206;2023-05-07T00:45:32;8.60;;;6.75;;
36351;SDS011;22382;44.768;17.206;2023-05-07T00:48:00;8.05;;;6.32;;
36351;SDS011;22382;44.768;17.206;2023-05-07T00:50:28;8.60;;;7.13;;
36351;SDS011;22382;44.768;17.206;2023-05-07T00:52:56;8.10;;;7.00;;
36351;SDS011;22382;44.768;17.206;2023-05-07T00:55:24;10.25;;;7.15;;
36351;SDS011;22382;44.768;17.206;2023-05-07T00:57:51;11.70;;;7.05;;
36351;SDS011;22382;44.768;17.206;2023-05-07T01:00:19;9.40;;;7.40;;
36351;SDS011;22382;44.768;17.206;2023-05-07T01:02:46;10.07;;;7.13;;
36351;SDS011;22382;44.768;17.206;2023-05-07T01:05:15;10.10;;;6.93;;
36351;SDS011;22382;44.768;17.206;2023-05-07T01:07:44;7.97;;;6.85;;
36351;SDS011;22382;44.768;17.206;2023-05-07T01:10:12;9.35;;;6.68;;
36351;SDS011;22382;44.768;17.206;2023-05-07T01:12:40;10.23;;;6.93;;
36351;SDS011;22382;44.768;17.206;2023-05-07T01:15:08;8.43;;;6.70;;
36351;SDS011;22382;44.768;17.206;2023-05-07T01:17:36;8.45;;;6.70;;
36351;SDS011;22382;44.768;17.206;2023-05-07T01:20:06;7.53;;;6.63;;
36351;SDS011;22382;44.768;17.206;2023-05-07T01:22:35;8.88;;;6.35;;
36351;SDS011;22382;44.768;17.206;2023-05-07T01:25:06;7.95;;;5.85;;
36351;SDS011;22382;44.768;17.206;2023-05-07T01:27:34;8.85;;;6.70;;
36351;SDS011;22382;44.768;17.206;2023-05-07T01:30:03;9.80;;;6.55;;
36351;SDS011;22382;44.768;17.206;2023-05-07T01:32:33;7.43;;;6.53;;
36351;SDS011;22382;44.768;17.206;2023-05-07T01:35:05;9.18;;;6.72;;
36351;SDS011;22382;44.768;17.206;2023-05-07T01:37:35;9.57;;;6.30;;
36351;SDS011;22382;44.768;17.206;2023-05-07T01:40:02;7.75;;;6.30;;
36351;SDS011;22382;44.768;17.206;2023-05-07T01:42:31;7.47;;;6.60;;
36351;SDS011;22382;44.768;17.206;2023-05-07T01:44:58;7.43;;;6.35;;
36351;SDS011;22382;44.768;17.206;2023-05-07T01:47:25;7.68;;;6.72;;
36351;SDS011;22382;44.768;17.206;2023-05-07T01:49:53;8.48;;;6.72;;
36351;SDS011;22382;44.768;17.206;2023-05-07T01:52:21;7.32;;;6.53;;
36351;SDS011;22382;44.768;17.206;2023-05-07T01:54:48;7.05;;;6.28;;
36351;SDS011;22382;44.768;17.206;2023-05-07T01:57:16;8.80;;;6.95;;
36351;SDS011;22382;44.768;17.206;2023-05-07T01:59:43;7.20;;;6.50;;
36351;SDS011;22382;44.768;17.206;2023-05-07T02:02:10;8.07;;;6.40;;
36351;SDS011;22382;44.768;17.206;2023-05-07T02:04:37;7.38;;;6.32;;
36351;SDS011;22382;44.768;17.206;2023-05-07T02:07:04;7.18;;;6.32;;
36351;SDS011;22382;44.768;17.206;2023-05-07T02:09:31;8.25;;;6.88;;
36351;SDS011;22382;44.768;17.206;2023-05-07T02:11:59;12.27;;;7.35;;
36351;SDS011;22382;44.768;17.206;2023-05-07T02:14:26;8.73;;;7.18;;
36351;SDS011;22382;44.768;17.206;2023-05-07T02:16:53;9.93;;;6.90;;
36351;SDS011;22382;44.768;17.206;2023-05-07T02:19:21;9.00;;;6.72;;
36351;SDS011;22382;44.768;17.206;2023-05-07T02:21:48;7.05;;;6.35;;
36351;SDS011;22382;44.768;17.206;2023-05-07T02:24:15;8.75;;;6.60;;
36351;SDS011;22382;44.768;17.206;2023-05-07T02:26:42;11.10;;;6.72;;
36351;SDS011;22382;44.768;17.206;2023-05-07T02:29:09;9.52;;;6.88;;
36351;SDS011;22382;44.768;17.206;2023-05-07T02:31:37;6.95;;;6.20;;
36351;SDS011;22382;44.768;17.206;2023-05-07T02:34:04;11.45;;;7.22;;
36351;SDS011;22382;44.768;17.206;2023-05-07T02:36:31;8.88;;;6.97;;
36351;SDS011;22382;44.768;17.206;2023-05-07T02:38:58;6.68;;;5.95;;
36351;SDS011;22382;44.768;17.206;2023-05-07T02:41:25;7.80;;;6.82;;
36351;SDS011;22382;44.768;17.206;2023-05-07T02:43:54;7.85;;;6.18;;
36351;SDS011;22382;44.768;17.206;2023-05-07T02:46:21;12.27;;;7.28;;
36351;SDS011;22382;44.768;17.206;2023-05-07T02:48:48;10.35;;;6.70;;
36351;SDS011;22382;44.768;17.206;2023-05-07T02:51:19;7.57;;;6.78;;
36351;SDS011;22382;44.768;17.206;2023-05-07T02:53:50;8.80;;;7.00;;
36351;SDS011;22382;44.768;17.206;2023-05-07T02:56:17;8.80;;;6.55;;
36351;SDS011;22382;44.768;17.206;2023-05-07T02:58:45;8.98;;;7.07;;
36351;SDS011;22382;44.768;17.206;2023-05-07T03:01:12;7.45;;;6.13;;
36351;SDS011;22382;44.768;17.206;2023-05-07T03:03:40;7.60;;;6.63;;
36351;SDS011;22382;44.768;17.206;2023-05-07T03:06:07;10.90;;;7.20;;
36351;SDS011;22382;44.768;17.206;2023-05-07T03:08:34;11.13;;;7.00;;
36351;SDS011;22382;44.768;17.206;2023-05-07T03:11:02;10.50;;;7.35;;
36351;SDS011;22382;44.768;17.206;2023-05-07T03:13:30;9.02;;;7.10;;
36351;SDS011;22382;44.768;17.206;2023-05-07T03:15:57;10.90;;;6.95;;
36351;SDS011;22382;44.768;17.206;2023-05-07T03:18:24;7.50;;;6.38;;
36351;SDS011;22382;44.768;17.206;2023-05-07T03:20:51;8.50;;;6.82;;
36351;SDS011;22382;44.768;17.206;2023-05-07T03:23:19;8.70;;;7.65;;
36351;SDS011;22382;44.768;17.206;2023-05-07T03:25:49;12.88;;;7.15;;
36351;SDS011;22382;44.768;17.206;2023-05-07T03:28:17;9.48;;;6.88;;
36351;SDS011;22382;44.768;17.206;2023-05-07T03:30:44;10.35;;;6.50;;
36351;SDS011;22382;44.768;17.206;2023-05-07T03:33:11;8.70;;;6.93;;
36351;SDS011;22382;44.768;17.206;2023-05-07T03:35:38;10.95;;;6.97;;
36351;SDS011;22382;44.768;17.206;2023-05-07T03:38:05;10.07;;;7.07;;
36351;SDS011;22382;44.768;17.206;2023-05-07T03:40:33;8.43;;;6.70;;
36351;SDS011;22382;44.768;17.206;2023-05-07T03:43:01;8.23;;;6.90;;
36351;SDS011;22382;44.768;17.206;2023-05-07T03:45:28;10.32;;;7.60;;
36351;SDS011;22382;44.768;17.206;2023-05-07T03:47:55;11.75;;;7.70;;
36351;SDS011;22382;44.768;17.206;2023-05-07T03:50:23;8.50;;;7.18;;
36351;SDS011;22382;44.768;17.206;2023-05-07T03:52:50;9.73;;;7.28;;
36351;SDS011;22382;44.768;17.206;2023-05-07T03:55:17;8.98;;;7.65;;
36351;SDS011;22382;44.768;17.206;2023-05-07T03:57:44;9.63;;;7.30;;
36351;SDS011;22382;44.768;17.206;2023-05-07T04:00:12;7.95;;;6.93;;
36351;SDS011;22382;44.768;17.206;2023-05-07T04:02:39;8.13;;;6.85;;
36351;SDS011;22382;44.768;17.206;2023-05-07T04:05:07;8.95;;;6.85;;
36351;SDS011;22382;44.768;17.206;2023-05-07T04:07:34;9.25;;;6.72;;
36351;SDS011;22382;44.768;17.206;2023-05-07T04:10:02;7.85;;;6.93;;
36351;SDS011;22382;44.768;17.206;2023-05-07T04:12:29;8.45;;;6.78;;
36351;SDS011;22382;44.768;17.206;2023-05-07T04:14:56;8.65;;;6.88;;
36351;SDS011;22382;44.768;17.206;2023-05-07T04:17:23;7.47;;;6.18;;
36351;SDS011;22382;44.768;17.206;2023-05-07T04:19:50;8.20;;;6.50;;
36351;SDS011;22382;44.768;17.206;2023-05-07T04:22:18;7.43;;;6.60;;
36351;SDS011;22382;44.768;17.206;2023-05-07T04:24:45;8.50;;;7.10;;
36351;SDS011;22382;44.768;17.206;2023-05-07T04:27:12;7.78;;;6.57;;
36351;SDS011;22382;44.768;17.206;2023-05-07T04:29:39;7.97;;;6.35;;
36351;SDS011;22382;44.768;17.206;2023-05-07T04:32:09;6.60;;;5.90;;
36351;SDS011;22382;44.768;17.206;2023-05-07T04:34:36;6.65;;;5.97;;
36351;SDS011;22382;44.768;17.206;2023-05-07T04:37:03;6.88;;;6.18;;
36351;SDS011;22382;44.768;17.206;2023-05-07T04:39:32;7.22;;;6.07;;
36351;SDS011;22382;44.768;17.206;2023-05-07T04:42:01;10.80;;;5.82;;
36351;SDS011;22382;44.768;17.206;2023-05-07T04:44:29;7.50;;;6.10;;
36351;SDS011;22382;44.768;17.206;2023-05-07T04:46:57;9.57;;;7.50;;
36351;SDS011;22382;44.768;17.206;2023-05-07T04:49:24;11.88;;;7.30;;
36351;SDS011;22382;44.768;17.206;2023-05-07T04:51:52;7.78;;;6.80;;
36351;SDS011;22382;44.768;17.206;2023-05-07T04:54:19;8.75;;;6.57;;
36351;SDS011;22382;44.768;17.206;2023-05-07T04:56:46;8.70;;;6.20;;
36351;SDS011;22382;44.768;17.206;2023-05-07T04:59:13;6.65;;;5.55;;
36351;SDS011;22382;44.768;17.206;2023-05-07T05:01:40;7.78;;;5.80;;
36351;SDS011;22382;44.768;17.206;2023-05-07T05:04:08;7.47;;;5.55;;
36351;SDS011;22382;44.768;17.206;2023-05-07T05:06:35;7.15;;;4.85;;
36351;SDS011;22382;44.768;17.206;2023-05-07T05:09:02;6.32;;;5.35;;
36351;SDS011;22382;44.768;17.206;2023-05-07T05:11:31;6.10;;;4.85;;
36351;SDS011;22382;44.768;17.206;2023-05-07T05:13:59;7.80;;;5.43;;
36351;SDS011;22382;44.768;17.206;2023-05-07T05:16:26;6.85;;;4.88;;
36351;SDS011;22382;44.768;17.206;2023-05-07T05:18:54;6.50;;;5.20;;
36351;SDS011;22382;44.768;17.206;2023-05-07T05:21:21;5.75;;;5.07;;
36351;SDS011;22382;44.768;17.206;2023-05-07T05:23:48;6.90;;;4.57;;
36351;SDS011;22382;44.768;17.206;2023-05-07T05:26:16;6.72;;;5.20;;
36351;SDS011;22382;44.768;17.206;2023-05-07T05:28:43;7.18;;;5.40;;
36351;SDS011;22382;44.768;17.206;2023-05-07T05:31:11;8.00;;;5.05;;
36351;SDS011;22382;44.768;17.206;2023-05-07T05:33:38;9.15;;;4.82;;
36351;SDS011;22382;44.768;17.206;2023-05-07T05:36:08;6.25;;;5.10;;
36351;SDS011;22382;44.768;17.206;2023-05-07T05:38:36;5.95;;;4.90;;
36351;SDS011;22382;44.768;17.206;2023-05-07T05:41:04;6.00;;;4.93;;
36351;SDS011;22382;44.768;17.206;2023-05-07T05:43:31;6.65;;;4.70;;
36351;SDS011;22382;44.768;17.206;2023-05-07T05:45:58;10.30;;;5.28;;
36351;SDS011;22382;44.768;17.206;2023-05-07T05:48:25;5.90;;;4.50;;
36351;SDS011;22382;44.768;17.206;2023-05-07T05:50:53;8.15;;;4.72;;
36351;SDS011;22382;44.768;17.206;2023-05-07T05:53:20;6.82;;;4.80;;
36351;SDS011;22382;44.768;17.206;2023-05-07T05:55:47;5.25;;;4.47;;
36351;SDS011;22382;44.768;17.206;2023-05-07T05:58:14;11.05;;;8.00;;
36351;SDS011;22382;44.768;17.206;2023-05-07T06:00:43;13.38;;;9.68;;
36351;SDS011;22382;44.768;17.206;2023-05-07T06:03:12;12.40;;;8.80;;
36351;SDS011;22382;44.768;17.206;2023-05-07T06:05:39;9.10;;;7.50;;
36351;SDS011;22382;44.768;17.206;2023-05-07T06:08:07;10.05;;;6.15;;
36351;SDS011;22382;44.768;17.206;2023-05-07T06:10:35;5.68;;;5.07;;
36351;SDS011;22382;44.768;17.206;2023-05-07T06:13:03;5.38;;;4.55;;
36351;SDS011;22382;44.768;17.206;2023-05-07T06:15:31;6.90;;;4.90;;
36351;SDS011;22382;44.768;17.206;2023-05-07T06:17:58;7.65;;;5.35;;
36351;SDS011;22382;44.768;17.206;2023-05-07T06:20:26;6.45;;;5.15;;
36351;SDS011;22382;44.768;17.206;2023-05-07T06:22:53;7.55;;;5.97;;
36351;SDS011;22382;44.768;17.206;2023-05-07T06:25:20;5.72;;;4.60;;
36351;SDS011;22382;44.768;17.206;2023-05-07T06:27:47;11.98;;;5.65;;
36351;SDS011;22382;44.768;17.206;2023-05-07T06:30:14;7.43;;;5.05;;
36351;SDS011;22382;44.768;17.206;2023-05-07T06:32:42;6.35;;;4.97;;
36351;SDS011;22382;44.768;17.206;2023-05-07T06:35:09;6.22;;;4.20;;
36351;SDS011;22382;44.768;17.206;2023-05-07T06:37:36;10.95;;;6.72;;
36351;SDS011;22382;44.768;17.206;2023-05-07T06:40:05;8.85;;;6.60;;
36351;SDS011;22382;44.768;17.206;2023-05-07T06:42:35;11.30;;;7.00;;
36351;SDS011;22382;44.768;17.206;2023-05-07T06:45:03;9.38;;;5.72;;
36351;SDS011;22382;44.768;17.206;2023-05-07T06:47:31;7.53;;;4.88;;
36351;SDS011;22382;44.768;17.206;2023-05-07T06:50:01;11.32;;;7.10;;
36351;SDS011;22382;44.768;17.206;2023-05-07T06:52:29;11.70;;;6.13;;
36351;SDS011;22382;44.768;17.206;2023-05-07T06:54:56;8.40;;;4.68;;
36351;SDS011;22382;44.768;17.206;2023-05-07T06:57:24;5.88;;;4.00;;
36351;SDS011;22382;44.768;17.206;2023-05-07T06:59:51;7.03;;;4.05;;
36351;SDS011;22382;44.768;17.206;2023-05-07T07:02:19;7.30;;;4.43;;
36351;SDS011;22382;44.768;17.206;2023-05-07T07:04:46;10.48;;;4.60;;
36351;SDS011;22382;44.768;17.206;2023-05-07T07:07:13;5.63;;;4.47;;
36351;SDS011;22382;44.768;17.206;2023-05-07T07:09:40;4.88;;;3.80;;
36351;SDS011;22382;44.768;17.206;2023-05-07T07:12:07;4.07;;;2.92;;
36351;SDS011;22382;44.768;17.206;2023-05-07T07:14:35;5.63;;;4.03;;
36351;SDS011;22382;44.768;17.206;2023-05-07T07:17:02;5.35;;;3.80;;
36351;SDS011;22382;44.768;17.206;2023-05-07T07:19:29;5.90;;;3.72;;
36351;SDS011;22382;44.768;17.206;2023-05-07T07:21:56;9.75;;;3.97;;
36351;SDS011;22382;44.768;17.206;2023-05-07T07:24:23;8.75;;;3.83;;
36351;SDS011;22382;44.768;17.206;2023-05-07T07:26:51;4.95;;;3.88;;
36351;SDS011;22382;44.768;17.206;2023-05-07T07:29:18;4.70;;;3.83;;
36351;SDS011;22382;44.768;17.206;2023-05-07T07:31:45;6.35;;;3.90;;
36351;SDS011;22382;44.768;17.206;2023-05-07T07:34:13;5.65;;;3.42;;
36351;SDS011;22382;44.768;17.206;2023-05-07T07:36:40;5.00;;;3.83;;
36351;SDS011;22382;44.768;17.206;2023-05-07T07:39:12;5.30;;;3.70;;
36351;SDS011;22382;44.768;17.206;2023-05-07T07:41:39;5.50;;;4.20;;
36351;SDS011;22382;44.768;17.206;2023-05-07T07:44:06;6.75;;;4.50;;
36351;SDS011;22382;44.768;17.206;2023-05-07T07:46:35;7.30;;;3.97;;
36351;SDS011;22382;44.768;17.206;2023-05-07T07:49:02;7.22;;;4.70;;
36351;SDS011;22382;44.768;17.206;2023-05-07T07:51:29;6.45;;;3.83;;
36351;SDS011;22382;44.768;17.206;2023-05-07T07:53:56;4.78;;;3.75;;
36351;SDS011;22382;44.768;17.206;2023-05-07T07:56:25;4.50;;;3.35;;
36351;SDS011;22382;44.768;17.206;2023-05-07T07:58:52;5.93;;;4.15;;
36351;SDS011;22382;44.768;17.206;2023-05-07T08:01:19;6.97;;;4.20;;
36351;SDS011;22382;44.768;17.206;2023-05-07T08:03:47;4.85;;;3.85;;
36351;SDS011;22382;44.768;17.206;2023-05-07T08:06:15;3.88;;;3.13;;
36351;SDS011;22382;44.768;17.206;2023-05-07T08:08:43;4.88;;;3.78;;
36351;SDS011;22382;44.768;17.206;2023-05-07T08:11:10;5.85;;;4.03;;
36351;SDS011;22382;44.768;17.206;2023-05-07T08:13:38;6.57;;;3.50;;
36351;SDS011;22382;44.768;17.206;2023-05-07T08:16:05;5.45;;;3.80;;
36351;SDS011;22382;44.768;17.206;2023-05-07T08:18:32;4.10;;;3.55;;
36351;SDS011;22382;44.768;17.206;2023-05-07T08:20:59;4.32;;;3.58;;
36351;SDS011;22382;44.768;17.206;2023-05-07T08:23:28;5.82;;;3.65;;
36351;SDS011;22382;44.768;17.206;2023-05-07T08:25:55;4.68;;;3.88;;
36351;SDS011;22382;44.768;17.206;2023-05-07T08:28:22;3.95;;;3.40;;
36351;SDS011;22382;44.768;17.206;2023-05-07T08:30:51;4.00;;;3.60;;
36351;SDS011;22382;44.768;17.206;2023-05-07T08:33:18;4.55;;;3.47;;
36351;SDS011;22382;44.768;17.206;2023-05-07T08:35:46;4.10;;;3.60;;
36351;SDS011;22382;44.768;17.206;2023-05-07T08:38:13;6.32;;;3.53;;
36351;SDS011;22382;44.768;17.206;2023-05-07T08:40:40;6.65;;;3.40;;
36351;SDS011;22382;44.768;17.206;2023-05-07T08:43:07;12.18;;;5.00;;
36351;SDS011;22382;44.768;17.206;2023-05-07T08:45:37;11.88;;;3.55;;
36351;SDS011;22382;44.768;17.206;2023-05-07T08:48:14;3.38;;;2.90;;
36351;SDS011;22382;44.768;17.206;2023-05-07T08:50:46;3.85;;;2.85;;
36351;SDS011;22382;44.768;17.206;2023-05-07T08:53:17;4.47;;;2.80;;
36351;SDS011;22382;44.768;17.206;2023-05-07T08:55:47;5.10;;;2.92;;
36351;SDS011;22382;44.768;17.206;2023-05-07T08:58:15;3.70;;;2.80;;
36351;SDS011;22382;44.768;17.206;2023-05-07T09:00:46;3.45;;;2.80;;
36351;SDS011;22382;44.768;17.206;2023-05-07T09:03:16;4.38;;;2.70;;
36351;SDS011;22382;44.768;17.206;2023-05-07T09:05:44;5.30;;;2.92;;
36351;SDS011;22382;44.768;17.206;2023-05-07T09:08:14;5.68;;;3.50;;
36351;SDS011;22382;44.768;17.206;2023-05-07T09:10:42;5.78;;;3.30;;
36351;SDS011;22382;44.768;17.206;2023-05-07T09:13:11;6.40;;;3.25;;
36351;SDS011;22382;44.768;17.206;2023-05-07T09:15:41;8.25;;;3.65;;
36351;SDS011;22382;44.768;17.206;2023-05-07T09:18:08;3.17;;;2.83;;
36351;SDS011;22382;44.768;17.206;2023-05-07T09:20:39;6.30;;;4.07;;
36351;SDS011;22382;44.768;17.206;2023-05-07T09:23:07;6.77;;;3.90;;
36351;SDS011;22382;44.768;17.206;2023-05-07T09:25:38;6.47;;;3.63;;
36351;SDS011;22382;44.768;17.206;2023-05-07T09:28:06;4.28;;;3.17;;
36351;SDS011;22382;44.768;17.206;2023-05-07T09:30:34;4.28;;;3.88;;
36351;SDS011;22382;44.768;17.206;2023-05-07T09:33:02;3.88;;;3.47;;
36351;SDS011;22382;44.768;17.206;2023-05-07T09:35:33;4.68;;;3.90;;
36351;SDS011;22382;44.768;17.206;2023-05-07T09:38:01;4.00;;;3.13;;
36351;SDS011;22382;44.768;17.206;2023-05-07T09:40:31;5.85;;;3.03;;
36351;SDS011;22382;44.768;17.206;2023-05-07T09:43:08;4.38;;;3.35;;
36351;SDS011;22382;44.768;17.206;2023-05-07T09:45:38;5.43;;;3.38;;
36351;SDS011;22382;44.768;17.206;2023-05-07T09:48:08;3.35;;;2.90;;
36351;SDS011;22382;44.768;17.206;2023-05-07T09:50:40;4.88;;;3.20;;
36351;SDS011;22382;44.768;17.206;2023-05-07T09:53:19;3.80;;;3.22;;
36351;SDS011;22382;44.768;17.206;2023-05-07T09:55:53;3.97;;;3.50;;
36351;SDS011;22382;44.768;17.206;2023-05-07T09:58:23;4.72;;;3.00;;
36351;SDS011;22382;44.768;17.206;2023-05-07T10:00:52;5.43;;;3.67;;
36351;SDS011;22382;44.768;17.206;2023-05-07T10:03:19;6.18;;;3.25;;
36351;SDS011;22382;44.768;17.206;2023-05-07T10:05:49;5.95;;;3.33;;
36351;SDS011;22382;44.768;17.206;2023-05-07T10:08:18;5.22;;;3.90;;
36351;SDS011;22382;44.768;17.206;2023-05-07T10:10:46;5.50;;;3.67;;
36351;SDS011;22382;44.768;17.206;2023-05-07T10:13:14;7.53;;;3.95;;
36351;SDS011;22382;44.768;17.206;2023-05-07T10:15:44;4.28;;;3.30;;
36351;SDS011;22382;44.768;17.206;2023-05-07T10:18:19;4.72;;;3.42;;
36351;SDS011;22382;44.768;17.206;2023-05-07T10:20:57;4.20;;;3.33;;
36351;SDS011;22382;44.768;17.206;2023-05-07T10:23:50;6.10;;;3.90;;
36351;SDS011;22382;44.768;17.206;2023-05-07T10:26:20;7.72;;;4.05;;
36351;SDS011;22382;44.768;17.206;2023-05-07T10:28:50;6.45;;;3.55;;
36351;SDS011;22382;44.768;17.206;2023-05-07T10:31:44;3.10;;;2.80;;
36351;SDS011;22382;44.768;17.206;2023-05-07T10:34:24;6.32;;;3.50;;
36351;SDS011;22382;44.768;17.206;2023-05-07T10:36:55;6.70;;;3.80;;
36351;SDS011;22382;44.768;17.206;2023-05-07T10:39:25;4.25;;;3.30;;
36351;SDS011;22382;44.768;17.206;2023-05-07T10:41:53;5.00;;;2.67;;
36351;SDS011;22382;44.768;17.206;2023-05-07T10:44:25;6.13;;;3.30;;
36351;SDS011;22382;44.768;17.206;2023-05-07T10:50:22;6.97;;;3.58;;
36351;SDS011;22382;44.768;17.206;2023-05-07T10:52:32;4.07;;;3.22;;
36351;SDS011;22382;44.768;17.206;2023-05-07T10:55:33;4.53;;;3.30;;
36351;SDS011;22382;44.768;17.206;2023-05-07T10:57:53;4.80;;;3.33;;
36351;SDS011;22382;44.768;17.206;2023-05-07T11:03:04;5.32;;;3.40;;
36351;SDS011;22382;44.768;17.206;2023-05-07T11:05:34;5.38;;;3.20;;
36351;SDS011;22382;44.768;17.206;2023-05-07T11:08:04;5.88;;;3.53;;
36351;SDS011;22382;44.768;17.206;2023-05-07T11:13:41;3.97;;;3.53;;
36351;SDS011;22382;44.768;17.206;2023-05-07T11:16:18;4.70;;;3.13;;
36351;SDS011;22382;44.768;17.206;2023-05-07T11:18:51;7.15;;;3.65;;
36351;SDS011;22382;44.768;17.206;2023-05-07T11:24:04;4.72;;;3.30;;
36351;SDS011;22382;44.768;17.206;2023-05-07T11:29:17;5.40;;;3.17;;
36351;SDS011;22382;44.768;17.206;2023-05-07T11:31:49;2.97;;;2.70;;
36351;SDS011;22382;44.768;17.206;2023-05-07T11:34:22;5.53;;;3.22;;
36351;SDS011;22382;44.768;17.206;2023-05-07T11:36:50;4.13;;;3.00;;
36351;SDS011;22382;44.768;17.206;2023-05-07T11:39:52;4.32;;;3.20;;
36351;SDS011;22382;44.768;17.206;2023-05-07T11:42:27;3.22;;;2.63;;
36351;SDS011;22382;44.768;17.206;2023-05-07T11:44:56;4.43;;;2.90;;
36351;SDS011;22382;44.768;17.206;2023-05-07T11:47:23;5.43;;;2.88;;
36351;SDS011;22382;44.768;17.206;2023-05-07T11:49:52;4.78;;;3.30;;
36351;SDS011;22382;44.768;17.206;2023-05-07T11:52:22;4.38;;;3.08;;
36351;SDS011;22382;44.768;17.206;2023-05-07T11:54:50;3.47;;;2.65;;
36351;SDS011;22382;44.768;17.206;2023-05-07T11:57:18;4.70;;;2.95;;
36351;SDS011;22382;44.768;17.206;2023-05-07T11:59:46;5.95;;;2.50;;
36351;SDS011;22382;44.768;17.206;2023-05-07T12:02:14;3.78;;;2.67;;
36351;SDS011;22382;44.768;17.206;2023-05-07T12:04:42;3.75;;;2.70;;
36351;SDS011;22382;44.768;17.206;2023-05-07T12:07:13;4.80;;;2.80;;
36351;SDS011;22382;44.768;17.206;2023-05-07T12:09:45;2.63;;;2.42;;
36351;SDS011;22382;44.768;17.206;2023-05-07T12:12:13;4.63;;;3.05;;
36351;SDS011;22382;44.768;17.206;2023-05-07T12:14:42;2.78;;;2.30;;
36351;SDS011;22382;44.768;17.206;2023-05-07T12:17:11;3.05;;;2.75;;
36351;SDS011;22382;44.768;17.206;2023-05-07T12:19:40;7.25;;;3.17;;
36351;SDS011;22382;44.768;17.206;2023-05-07T12:22:09;4.18;;;2.90;;
36351;SDS011;22382;44.768;17.206;2023-05-07T12:24:43;5.95;;;2.88;;
36351;SDS011;22382;44.768;17.206;2023-05-07T12:27:23;2.85;;;2.25;;
36351;SDS011;22382;44.768;17.206;2023-05-07T12:29:51;4.57;;;2.65;;
36351;SDS011;22382;44.768;17.206;2023-05-07T12:32:21;3.55;;;2.20;;
36351;SDS011;22382;44.768;17.206;2023-05-07T12:34:51;2.55;;;2.35;;
36351;SDS011;22382;44.768;17.206;2023-05-07T12:37:24;3.70;;;2.30;;
36351;SDS011;22382;44.768;17.206;2023-05-07T12:40:06;8.63;;;3.40;;
36351;SDS011;22382;44.768;17.206;2023-05-07T12:42:37;6.63;;;2.67;;
36351;SDS011;22382;44.768;17.206;2023-05-07T12:45:08;5.22;;;2.55;;
36351;SDS011;22382;44.768;17.206;2023-05-07T12:47:43;3.22;;;2.40;;
36351;SDS011;22382;44.768;17.206;2023-05-07T12:50:12;4.30;;;2.90;;
36351;SDS011;22382;44.768;17.206;2023-05-07T12:52:41;7.70;;;2.53;;
36351;SDS011;22382;44.768;17.206;2023-05-07T12:55:09;4.55;;;2.90;;
36351;SDS011;22382;44.768;17.206;2023-05-07T12:57:47;4.82;;;2.70;;
36351;SDS011;22382;44.768;17.206;2023-05-07T13:03:26;2.80;;;2.50;;
36351;SDS011;22382;44.768;17.206;2023-05-07T13:06:03;2.95;;;2.60;;
36351;SDS011;22382;44.768;17.206;2023-05-07T13:08:35;3.75;;;2.70;;
36351;SDS011;22382;44.768;17.206;2023-05-07T13:11:06;2.72;;;2.42;;
36351;SDS011;22382;44.768;17.206;2023-05-07T13:13:34;4.50;;;2.33;;
36351;SDS011;22382;44.768;17.206;2023-05-07T13:16:03;8.32;;;2.63;;
36351;SDS011;22382;44.768;17.206;2023-05-07T13:18:31;3.53;;;2.40;;
36351;SDS011;22382;44.768;17.206;2023-05-07T13:20:59;3.65;;;2.53;;
36351;SDS011;22382;44.768;17.206;2023-05-07T13:23:27;2.58;;;2.38;;
36351;SDS011;22382;44.768;17.206;2023-05-07T13:25:55;3.83;;;2.30;;
36351;SDS011;22382;44.768;17.206;2023-05-07T13:28:23;3.95;;;2.30;;
36351;SDS011;22382;44.768;17.206;2023-05-07T13:30:51;4.22;;;2.28;;
36351;SDS011;22382;44.768;17.206;2023-05-07T13:33:18;10.85;;;2.47;;
36351;SDS011;22382;44.768;17.206;2023-05-07T13:35:46;3.42;;;2.47;;
36351;SDS011;22382;44.768;17.206;2023-05-07T13:38:13;3.55;;;2.30;;
36351;SDS011;22382;44.768;17.206;2023-05-07T13:40:42;3.10;;;2.55;;
36351;SDS011;22382;44.768;17.206;2023-05-07T13:43:09;4.32;;;2.50;;
36351;SDS011;22382;44.768;17.206;2023-05-07T13:45:37;4.47;;;2.20;;
36351;SDS011;22382;44.768;17.206;2023-05-07T13:48:05;4.80;;;2.63;;
36351;SDS011;22382;44.768;17.206;2023-05-07T13:50:32;5.50;;;2.70;;
36351;SDS011;22382;44.768;17.206;2023-05-07T13:52:59;3.15;;;2.85;;
36351;SDS011;22382;44.768;17.206;2023-05-07T13:55:28;2.75;;;2.53;;
36351;SDS011;22382;44.768;17.206;2023-05-07T13:57:56;6.15;;;2.80;;
36351;SDS011;22382;44.768;17.206;2023-05-07T14:00:25;2.70;;;2.30;;
36351;SDS011;22382;44.768;17.206;2023-05-07T14:02:53;2.92;;;2.63;;
36351;SDS011;22382;44.768;17.206;2023-05-07T14:05:21;5.47;;;3.05;;
36351;SDS011;22382;44.768;17.206;2023-05-07T14:07:54;4.30;;;2.63;;
36351;SDS011;22382;44.768;17.206;2023-05-07T14:10:24;3.17;;;2.40;;
36351;SDS011;22382;44.768;17.206;2023-05-07T14:12:52;4.68;;;3.20;;
36351;SDS011;22382;44.768;17.206;2023-05-07T14:15:19;4.47;;;2.60;;
36351;SDS011;22382;44.768;17.206;2023-05-07T14:17:46;4.28;;;2.90;;
36351;SDS011;22382;44.768;17.206;2023-05-07T14:20:14;4.57;;;3.20;;
36351;SDS011;22382;44.768;17.206;2023-05-07T14:22:41;3.25;;;2.50;;
36351;SDS011;22382;44.768;17.206;2023-05-07T14:25:10;3.95;;;2.85;;
36351;SDS011;22382;44.768;17.206;2023-05-07T14:27:37;4.07;;;3.05;;
36351;SDS011;22382;44.768;17.206;2023-05-07T14:30:04;6.43;;;2.90;;
36351;SDS011;22382;44.768;17.206;2023-05-07T14:32:32;3.25;;;2.70;;
36351;SDS011;22382;44.768;17.206;2023-05-07T14:35:00;3.70;;;2.72;;
36351;SDS011;22382;44.768;17.206;2023-05-07T14:37:27;4.18;;;2.58;;
36351;SDS011;22382;44.768;17.206;2023-05-07T14:39:55;4.63;;;3.08;;
36351;SDS011;22382;44.768;17.206;2023-05-07T14:42:22;4.15;;;3.42;;
36351;SDS011;22382;44.768;17.206;2023-05-07T14:44:50;4.78;;;2.85;;
36351;SDS011;22382;44.768;17.206;2023-05-07T14:47:17;4.07;;;2.97;;
36351;SDS011;22382;44.768;17.206;2023-05-07T14:49:45;3.83;;;3.10;;
36351;SDS011;22382;44.768;17.206;2023-05-07T14:52:12;6.35;;;3.08;;
36351;SDS011;22382;44.768;17.206;2023-05-07T14:54:41;4.53;;;2.90;;
36351;SDS011;22382;44.768;17.206;2023-05-07T14:57:08;4.78;;;3.00;;
36351;SDS011;22382;44.768;17.206;2023-05-07T14:59:37;8.85;;;3.67;;